Time;durP1;ratioP1;P1;durP2;ratioP2;P2;SDS_P1;SDS_P2;PMS_P1;PMS_P2;Temp;Humidity;BMP_temperature;BMP_pressure;BME280_temperature;BME280_humidity;BME280_pressure;Samples;Min_cycle;Max_cycle;Signal;HPM_P1;HPM_P2
2022/08/18 00:01:06;;;;;;;26.15;14.32;;;;;;;;;;5034185;28;20092;-63
2022/08/18 00:03:32;;;;;;;34.63;15.35;;;;;;;;;;5052531;28;20041;-63
2022/08/18 00:05:58;;;;;;;29.02;13.30;;;;;;;;;;5050225;28;20452;-63
2022/08/18 00:08:27;;;;;;;25.00;13.63;;;;;;;;;;5051538;28;20091;-63
2022/08/18 00:10:54;;;;;;;27.20;13.68;;;;;;;;;;5052121;28;20071;-63
2022/08/18 00:13:20;;;;;;;20.42;11.75;;;;;;;;;;5051331;28;20480;-63
2022/08/18 00:15:46;;;;;;;26.02;12.57;;;;;;;;;;5050668;28;20520;-63
2022/08/18 00:18:12;;;;;;;29.35;15.45;;;;;;;;;;5050232;28;20164;-63
2022/08/18 00:20:40;;;;;;;24.17;13.05;;;;;;;;;;5052202;28;20049;-63
2022/08/18 00:23:06;;;;;;;31.35;15.23;;;;;;;;;;5052263;28;20072;-63
2022/08/18 00:25:32;;;;;;;28.92;14.25;;;;;;;;;;5051798;28;20445;-63
2022/08/18 00:27:58;;;;;;;30.73;14.18;;;;;;;;;;5051869;28;20043;-63
2022/08/18 00:30:24;;;;;;;26.92;13.48;;;;;;;;;;5050711;28;20049;-64
2022/08/18 00:32:51;;;;;;;35.20;14.48;;;;;;;;;;5049468;28;20139;-63
2022/08/18 00:35:25;;;;;;;26.48;13.45;;;;;;;;;;5051232;28;20057;-63
2022/08/18 00:37:52;;;;;;;28.58;13.68;;;;;;;;;;5050518;28;20461;-63
2022/08/18 00:40:20;;;;;;;32.20;14.90;;;;;;;;;;5051233;28;20476;-63
2022/08/18 00:42:54;;;;;;;27.88;12.80;;;;;;;;;;5051813;28;20057;-63
2022/08/18 00:45:24;;;;;;;30.17;13.68;;;;;;;;;;5036428;28;20124;-63
2022/08/18 00:47:52;;;;;;;26.33;13.35;;;;;;;;;;5050550;28;20049;-63
2022/08/18 00:50:31;;;;;;;30.27;13.57;;;;;;;;;;5050976;28;20128;-63
2022/08/18 00:53:00;;;;;;;24.05;12.52;;;;;;;;;;5049803;28;20503;-63
2022/08/18 00:55:28;;;;;;;27.60;13.65;;;;;;;;;;5051329;28;20413;-63
2022/08/18 00:57:57;;;;;;;25.65;13.95;;;;;;;;;;5049262;28;20490;-63
2022/08/18 01:00:23;;;;;;;28.05;12.98;;;;;;;;;;5032803;28;20048;-63
2022/08/18 01:02:51;;;;;;;25.55;13.00;;;;;;;;;;5033572;28;20071;-63
2022/08/18 01:05:23;;;;;;;28.55;13.38;;;;;;;;;;5049538;28;20044;-63
2022/08/18 01:07:50;;;;;;;18.02;12.50;;;;;;;;;;5049426;28;20060;-63
2022/08/18 01:10:17;;;;;;;23.52;13.63;;;;;;;;;;5050974;28;20482;-63
2022/08/18 01:12:44;;;;;;;23.48;12.65;;;;;;;;;;5051580;28;20064;-63
2022/08/18 01:15:12;;;;;;;21.15;11.52;;;;;;;;;;5051721;28;20448;-63
2022/08/18 01:23:47;;;;;;;35.92;14.98;;;;;;;;;;5050978;28;21307;-63
2022/08/18 01:26:15;;;;;;;26.20;13.45;;;;;;;;;;5052116;28;20493;-63
2022/08/18 01:28:44;;;;;;;28.23;10.80;;;;;;;;;;5049506;28;20500;-63
2022/08/18 01:31:12;;;;;;;26.77;13.48;;;;;;;;;;5051030;28;20497;-63
2022/08/18 01:33:42;;;;;;;27.95;13.20;;;;;;;;;;5050766;28;20041;-63
2022/08/18 01:36:08;;;;;;;27.42;14.82;;;;;;;;;;5051522;28;20394;-63
2022/08/18 01:38:34;;;;;;;28.08;12.57;;;;;;;;;;5048230;28;20047;-63
2022/08/18 01:41:00;;;;;;;26.50;13.55;;;;;;;;;;5051833;28;20087;-63
2022/08/18 01:43:26;;;;;;;22.42;11.55;;;;;;;;;;5050281;28;20055;-62
2022/08/18 01:45:52;;;;;;;25.55;13.50;;;;;;;;;;5033228;28;20119;-63
2022/08/18 01:48:18;;;;;;;25.45;12.88;;;;;;;;;;5053089;28;20482;-63
2022/08/18 01:50:44;;;;;;;25.02;12.95;;;;;;;;;;5036915;28;20055;-64
2022/08/18 01:53:10;;;;;;;22.65;12.48;;;;;;;;;;5036379;28;20585;-63
2022/08/18 01:55:38;;;;;;;28.10;13.32;;;;;;;;;;5021025;28;20048;-64
2022/08/18 01:58:05;;;;;;;21.73;12.07;;;;;;;;;;5036060;28;20165;-63
2022/08/18 02:00:31;;;;;;;22.83;12.75;;;;;;;;;;5053876;28;20049;-62
2022/08/18 02:02:58;;;;;;;23.30;12.77;;;;;;;;;;5054154;28;20037;-63
2022/08/18 02:05:31;;;;;;;27.15;13.88;;;;;;;;;;5053582;28;20052;-62
2022/08/18 02:07:57;;;;;;;25.08;12.85;;;;;;;;;;5053140;28;20535;-62
2022/08/18 02:10:23;;;;;;;27.35;13.75;;;;;;;;;;5054155;28;20048;-63
2022/08/18 02:12:49;;;;;;;28.10;14.35;;;;;;;;;;5054359;28;20044;-63
2022/08/18 02:15:15;;;;;;;21.20;12.43;;;;;;;;;;5052746;28;20508;-63
2022/08/18 02:17:42;;;;;;;23.77;13.20;;;;;;;;;;5054376;28;20053;-63
2022/08/18 02:20:10;;;;;;;29.83;13.88;;;;;;;;;;5054246;28;20051;-63
2022/08/18 02:22:36;;;;;;;21.05;12.57;;;;;;;;;;5053735;28;20049;-63
2022/08/18 02:25:02;;;;;;;22.15;12.35;;;;;;;;;;5053487;28;20212;-63
2022/08/18 02:27:28;;;;;;;28.35;14.63;;;;;;;;;;5036384;28;20116;-63
2022/08/18 02:29:54;;;;;;;30.77;15.25;;;;;;;;;;5052147;28;20103;-63
2022/08/18 02:32:20;;;;;;;22.05;14.30;;;;;;;;;;5054878;28;20051;-62
2022/08/18 02:34:46;;;;;;;22.25;13.27;;;;;;;;;;5051744;28;20398;-63
2022/08/18 02:37:12;;;;;;;26.65;14.40;;;;;;;;;;5050267;28;20501;-63
2022/08/18 02:39:38;;;;;;;31.98;16.27;;;;;;;;;;5052919;28;20052;-63
2022/08/18 02:42:05;;;;;;;27.55;14.73;;;;;;;;;;5053428;28;20056;-62
2022/08/18 02:44:31;;;;;;;23.83;14.20;;;;;;;;;;5053142;28;20398;-62
2022/08/18 02:46:57;;;;;;;23.42;13.93;;;;;;;;;;5053972;28;20045;-63
2022/08/18 02:49:24;;;;;;;26.88;14.75;;;;;;;;;;5052735;28;20063;-62
2022/08/18 02:51:50;;;;;;;30.63;13.30;;;;;;;;;;5053327;28;20045;-62
2022/08/18 02:54:17;;;;;;;19.25;11.52;;;;;;;;;;5052735;28;20056;-62
2022/08/18 02:56:44;;;;;;;21.88;12.40;;;;;;;;;;5053460;28;20044;-63
2022/08/18 02:59:14;;;;;;;18.35;12.40;;;;;;;;;;5033480;28;20044;-62
2022/08/18 03:01:41;;;;;;;;;;;18.10;99.90;;;;;;5053779;28;20111;-63
2022/08/18 03:04:09;;;;;;;16.58;12.23;;;;;;;;;;5052998;28;19921;-63
2022/08/18 03:06:36;;;;;;;27.00;14.05;;;;;;;;;;5054152;28;20041;-63
2022/08/18 03:09:04;;;;;;;23.55;13.30;;;;;;;;;;5052563;28;20041;-63
2022/08/18 03:11:30;;;;;;;24.73;13.52;;;;;;;;;;5053390;28;20041;-63
2022/08/18 03:13:56;;;;;;;22.02;13.32;;;;;;;;;;5053298;28;20060;-63
2022/08/18 03:16:23;;;;;;;26.20;13.85;;;;;;;;;;5052579;28;20068;-62
2022/08/18 03:18:50;;;;;;;27.23;13.65;;;;;;;;;;5030507;28;20184;-62
2022/08/18 03:21:20;;;;;;;20.98;13.05;;;;;;;;;;5034322;28;20053;-62
2022/08/18 03:23:46;;;;;;;24.35;14.50;;;;;;;;;;5032794;28;20140;-62
2022/08/18 03:26:14;;;;;;;21.25;14.45;;;;;;;;;;5033075;28;20041;-62
2022/08/18 03:28:41;;;;;;;21.50;14.38;;;;;;;;;;5031611;28;20490;-62
2022/08/18 03:31:07;;;;;;;29.98;17.73;;;;;;;;;;5032651;28;20050;-62
2022/08/18 03:33:33;;;;;;;29.00;16.30;;;;;;;;;;5033089;28;20080;-62
2022/08/18 03:36:06;;;;;;;30.45;16.02;;;;;;;;;;5032856;28;20073;-63
2022/08/18 03:38:32;;;;;;;19.52;14.95;;;;;;;;;;5031393;28;20045;-63
2022/08/18 03:40:58;;;;;;;33.97;16.75;;;;;;;;;;5032594;28;20063;-63
2022/08/18 03:43:24;;;;;;;23.65;15.93;;;;;;;;;;5030722;28;20050;-63
2022/08/18 03:45:50;;;;;;;27.83;17.23;;;;;;;;;;5032883;28;20398;-62
2022/08/18 03:48:17;;;;;;;29.90;16.80;;;;;;;;;;5032277;28;20077;-62
2022/08/18 03:50:45;;;;;;;28.65;17.45;;;;;;;;;;5032647;28;20413;-63
2022/08/18 03:53:11;;;;;;;29.75;18.75;;;;;;;;;;5032199;28;20116;-63
2022/08/18 03:55:40;;;;;;;26.42;17.23;;;;;;;;;;5033047;28;20551;-63
2022/08/18 03:58:06;;;;;;;35.47;18.98;;;;;;;;;;5031252;28;20125;-63
2022/08/18 04:00:32;;;;;;;21.30;17.50;;;;;;;;;;5031854;28;20061;-62
2022/08/18 04:03:01;;;;;;;27.67;19.15;;;;;;;;;;5032190;28;20064;-62
2022/08/18 04:05:28;;;;;;;27.95;18.55;;;;;;;;;;5032690;28;20429;-63
2022/08/18 04:07:55;;;;;;;33.75;18.95;;;;;;;;;;5030169;28;20497;-63
2022/08/18 04:10:22;;;;;;;29.67;19.35;;;;;;;;;;5032177;28;20116;-62
2022/08/18 04:12:48;;;;;;;26.15;17.63;;;;;;;;;;5032280;28;20056;-62
2022/08/18 04:15:14;;;;;;;21.90;17.90;;;;;;;;;;5033212;28;20049;-62
2022/08/18 04:17:40;;;;;;;24.83;17.35;;;;;;;;;;5035746;28;20065;-62
2022/08/18 04:20:06;;;;;;;21.55;16.20;;;;;;;;;;5051416;28;20056;-63
2022/08/18 04:22:33;;;;;;;20.50;16.73;;;;;;;;;;5051212;28;20508;-62
2022/08/18 04:25:02;;;;;;;22.38;15.77;;;;;;;;;;5051521;28;20044;-62
2022/08/18 04:27:28;;;;;;;23.63;16.27;;;;;;;;;;5034848;28;20049;-63
2022/08/18 04:29:58;;;;;;;21.67;14.75;;;;;;;;;;5053029;28;20049;-63
2022/08/18 04:32:24;;;;;;;19.88;14.10;;;;;;;;;;5051024;28;20041;-63
2022/08/18 04:34:51;;;;;;;24.65;17.13;;;;;;;;;;5052720;28;20052;-62
2022/08/18 04:37:17;;;;;;;23.23;17.35;;;;;;;;;;5052745;28;20052;-62
2022/08/18 04:39:44;;;;;;;28.50;16.85;;;;;;;;;;5051792;28;20135;-62
2022/08/18 04:42:10;;;;;;;27.02;16.95;;;;;;;;;;5052708;28;20475;-63
2022/08/18 04:44:36;;;;;;;20.48;14.27;;;;;;;;;;5050704;28;20053;-63
2022/08/18 04:47:03;;;;;;;24.58;14.73;;;;;;;;;;5052337;28;20080;-63
2022/08/18 04:49:30;;;;;;;21.88;16.30;;;;;;;;;;5052398;28;20512;-62
2022/08/18 04:54:42;;;;;;;19.40;15.48;;;;;;;;;;5051525;28;20072;-63
2022/08/18 04:57:13;;;;;;;23.70;16.27;;;;;;;;;;5051458;28;20098;-63
2022/08/18 04:59:40;;;;;;;21.83;15.35;;;;;;;;;;5031514;28;20037;-62
2022/08/18 05:02:07;;;;;;;26.63;18.13;;;;;;;;;;5042773;28;20051;-62
2022/08/18 05:04:36;;;;;;;22.38;15.75;;;;;;;;;;5033631;28;20041;-61
2022/08/18 05:07:04;;;;;;;19.30;16.17;;;;;;;;;;5050552;28;20103;-60
2022/08/18 05:09:31;;;;;;;19.15;14.75;;;;;;;;;;5049598;28;20133;-60
2022/08/18 05:11:57;;;;;;;25.27;15.57;;;;;;;;;;5051247;28;20119;-60
2022/08/18 05:14:23;;;;;;;22.02;15.98;;;;;;;;;;5044374;28;20555;-60
2022/08/18 05:16:50;;;;;;;23.55;15.80;;;;;;;;;;5044230;28;20049;-61
2022/08/18 05:19:20;;;;;;;18.77;15.20;;;;;;;;;;5050809;28;20061;-61
2022/08/18 05:21:48;;;;;;;18.98;16.08;;;;;;;;;;5035398;28;20152;-61
2022/08/18 05:24:14;;;;;;;22.30;16.40;;;;;;;;;;5054800;28;20497;-61
2022/08/18 05:26:41;;;;;;;25.30;17.08;;;;;;;;;;5054749;28;20080;-61
2022/08/18 05:29:07;;;;;;;23.58;17.17;;;;;;;;;;5055385;28;20124;-61
2022/08/18 05:31:33;;;;;;;26.83;18.30;;;;;;;;;;5056443;28;20044;-60
2022/08/18 05:34:02;;;;;;;23.38;17.63;;;;;;;;;;5054188;28;20409;-61
2022/08/18 05:36:47;;;;;;;21.23;16.13;;;;;;;;;;5056108;28;20049;-61
2022/08/18 05:39:19;;;;;;;21.20;17.38;;;;;;;;;;5054646;28;20041;-61
2022/08/18 05:41:45;;;;;;;27.05;17.75;;;;;;;;;;5055757;28;20409;-61
2022/08/18 05:44:13;;;;;;;23.77;17.33;;;;;;;;;;5037388;28;20095;-61
2022/08/18 05:46:39;;;;;;;23.25;17.10;;;;;;;;;;5055937;28;20048;-61
2022/08/18 05:49:05;;;;;;;21.00;17.25;;;;;;;;;;5050831;28;20041;-61
2022/08/18 05:51:37;;;;;;;25.70;18.92;;;;;;;;;;5055918;28;20091;-61
2022/08/18 05:56:52;;;;;;;22.85;16.70;;;;;;;;;;5044441;28;20053;-62
2022/08/18 05:59:23;;;;;;;21.27;15.93;;;;;;;;;;5054000;28;20052;-63
2022/08/18 06:01:53;;;;;;;24.55;18.20;;;;;;;;;;5055126;28;20675;-62
2022/08/18 06:04:26;;;;;;;23.40;16.30;;;;;;;;;;5052597;28;20139;-62
2022/08/18 06:06:53;;;;;;;26.75;18.52;;;;;;;;;;5053813;28;20056;-64
2022/08/18 06:09:23;;;;;;;25.52;16.23;;;;;;;;;;5054520;28;20052;-62
2022/08/18 06:11:50;;;;;;;21.25;15.18;;;;;;;;;;5055208;28;20056;-61
2022/08/18 06:14:17;;;;;;;19.25;15.52;;;;;;;;;;5055346;28;20145;-61
2022/08/18 06:17:02;;;;;;;19.35;15.68;;;;;;;;;;5054466;28;20055;-61
2022/08/18 06:20:02;;;;;;;27.80;18.17;;;19.20;99.90;;;;;;5054415;28;20060;-61
2022/08/18 06:22:36;;;;;;;;;;;19.50;99.90;;;;;;5053761;28;20136;-61
2022/08/18 06:25:11;;;;;;;20.55;16.13;;;;;;;;;;5054627;28;19920;-62
2022/08/18 06:27:46;;;;;;;19.88;14.57;;;;;;;;;;5054551;28;20088;-62
2022/08/18 06:30:17;;;;;;;21.23;13.60;;;;;;;;;;5051975;28;20053;-62
2022/08/18 06:33:01;;;;;;;20.45;14.00;;;19.80;99.90;;;;;;5054280;28;20092;-62
2022/08/18 06:35:33;;;;;;;16.55;11.95;;;;;;;;;;5054582;28;20048;-62
2022/08/18 06:41:03;;;;;;;15.40;11.52;;;;;;;;;;5052809;28;20053;-62
2022/08/18 06:43:31;;;;;;;17.85;10.88;;;;;;;;;;5036098;28;20401;-62
2022/08/18 06:45:57;;;;;;;20.77;11.05;;;;;;;;;;5051084;28;20558;-62
2022/08/18 06:48:23;;;;;;;15.80;9.85;;;;;;;;;;5053974;28;20041;-62
2022/08/18 06:50:55;;;;;;;12.77;7.47;;;;;;;;;;5054023;28;20097;-62
2022/08/18 06:53:22;;;;;;;11.38;6.57;;;;;;;;;;5054359;28;20504;-62
2022/08/18 06:55:50;;;;;;;18.33;6.93;;;;;;;;;;5053594;28;20041;-62
2022/08/18 06:58:19;;;;;;;9.88;5.80;;;;;;;;;;5052662;28;20085;-62
2022/08/18 07:00:45;;;;;;;11.88;5.38;;;;;;;;;;5052631;28;20068;-62
2022/08/18 07:03:15;;;;;;;14.80;7.32;;;;;;;;;;5053177;28;20099;-62
2022/08/18 07:06:01;;;;;;;16.70;6.43;;;;;;;;;;5036177;28;20053;-62
2022/08/18 07:08:42;;;;;;;14.13;6.63;;;;;;;;;;5054089;28;20098;-63
2022/08/18 07:11:10;;;;;;;11.18;5.72;;;;;;;;;;5053431;28;20041;-63
2022/08/18 07:13:39;;;;;;;20.27;6.50;;;;;;;;;;5051444;28;20102;-63
2022/08/18 07:16:16;;;;;;;9.88;5.57;;;;;;;;;;5052644;28;20041;-63
2022/08/18 07:18:42;;;;;;;10.90;5.65;;;;;;;;;;5044166;28;20053;-62
2022/08/18 07:21:08;;;;;;;16.95;6.35;;;;;;;;;;5046706;28;20114;-62
2022/08/18 07:23:39;;;;;;;14.82;5.82;;;;;;;;;;5036506;28;20504;-62
2022/08/18 07:26:16;;;;;;;14.77;5.60;;;;;;;;;;5054249;28;20045;-62
2022/08/18 07:28:44;;;;;;;13.18;5.13;;;;;;;;;;5054007;28;20163;-62
2022/08/18 07:31:19;;;;;;;20.88;5.90;;;;;;;;;;5052769;28;20041;-62
2022/08/18 07:34:07;;;;;;;12.85;5.70;;;;;;;;;;5054038;28;20481;-62
2022/08/18 07:36:35;;;;;;;7.53;5.00;;;;;;;;;;5054147;28;20044;-62
2022/08/18 07:39:11;;;;;;;13.65;5.38;;;;;;;;;;5036165;28;20041;-62
2022/08/18 07:41:50;;;;;;;12.48;4.95;;;20.40;99.90;;;;;;5052779;28;20049;-62
2022/08/18 07:44:38;;;;;;;19.30;5.03;;;20.50;99.90;;;;;;5052258;28;20052;-62
2022/08/18 07:47:09;;;;;;;12.30;4.53;;;;;;;;;;5053880;28;20053;-62
2022/08/18 07:49:36;;;;;;;12.43;4.55;;;20.40;99.90;;;;;;5053833;28;20374;-62
2022/08/18 07:52:06;;;;;;;8.48;4.35;;;;;;;;;;5053634;28;20041;-62
2022/08/18 07:54:38;;;;;;;9.82;4.13;;;;;;;;;;5052821;28;20124;-62
2022/08/18 07:57:22;;;;;;;6.35;2.80;;;;;;;;;;5053215;28;20064;-62
2022/08/18 07:59:53;;;;;;;7.53;3.35;;;;;;;;;;5053427;28;20060;-62
2022/08/18 08:02:22;;;;;;;9.43;3.45;;;;;;;;;;5053486;28;20511;-62
2022/08/18 08:04:54;;;;;;;8.07;3.17;;;;;;;;;;5034820;28;20152;-62
2022/08/18 08:07:22;;;;;;;7.28;2.95;;;;;;;;;;5053298;28;20045;-63
2022/08/18 08:10:00;;;;;;;6.38;2.75;;;;;;;;;;5053246;28;20482;-62
2022/08/18 08:12:26;;;;;;;4.53;2.40;;;;;;;;;;5052624;28;20103;-62
2022/08/18 08:15:16;;;;;;;7.38;2.97;;;;;;;;;;5052421;28;20497;-62
2022/08/18 08:17:52;;;;;;;6.65;2.47;;;;;;;;;;5040339;28;20403;-62
2022/08/18 08:20:23;;;;;;;8.73;2.20;;;;;;;;;;5053349;28;20080;-62
2022/08/18 08:23:03;;;;;;;3.28;1.60;;;20.30;99.90;;;;;;5053200;28;20088;-62
2022/08/18 08:25:29;;;;;;;;;;;;;;;;;;5052739;28;20052;-63
2022/08/18 08:28:08;;;;;;;3.15;1.30;;;21.10;99.90;;;;;;5052803;28;19932;-62
2022/08/18 08:30:46;;;;;;;2.08;1.10;;;;;;;;;;5035429;28;20043;-62
2022/08/18 08:33:17;;;;;;;4.00;1.70;;;;;;;;;;5053089;28;20102;-63
2022/08/18 08:36:12;;;;;;;3.97;1.77;;;21.40;99.90;;;;;;5052155;28;20116;-62
2022/08/18 08:38:47;;;;;;;6.30;1.63;;;;;;;;;;5047922;28;20539;-63
2022/08/18 08:41:13;;;;;;;4.32;1.52;;;;;;;;;;5052887;28;20155;-63
2022/08/18 08:43:47;;;;;;;2.90;1.48;;;;;;;;;;5051514;28;20040;-62
2022/08/18 08:46:15;;;;;;;5.07;1.35;;;;;;;;;;5051453;28;20041;-63
2022/08/18 08:48:47;;;;;;;2.08;1.27;;;;;;;;;;5052666;28;20053;-63
2022/08/18 08:51:28;;;;;;;3.53;1.50;;;;;;;;;;5052188;28;20045;-63
2022/08/18 08:53:59;;;;;;;5.30;1.75;;;;;;;;;;5052164;28;20122;-62
2022/08/18 08:56:32;;;;;;;5.05;1.98;;;21.30;99.90;;;;;;5052379;28;20045;-64
2022/08/18 08:59:01;;;;;;;3.65;1.40;;;21.60;99.90;;;;;;5052161;28;20501;-63
2022/08/18 09:01:38;;;;;;;4.85;1.35;;;21.80;99.90;;;;;;5035115;28;20040;-62
2022/08/18 09:04:07;;;;;;;3.47;1.38;;;22.10;99.90;;;;;;5051838;28;20060;-63
2022/08/18 09:06:51;;;;;;;3.10;1.25;;;22.30;99.90;;;;;;5052567;28;20044;-62
2022/08/18 09:09:32;;;;;;;3.05;1.10;;;22.50;99.90;;;;;;5052394;28;20778;-63
2022/08/18 09:12:01;;;;;;;4.55;1.10;;;;;;;;;;5035147;28;20053;-63
2022/08/18 09:14:27;;;;;;;4.05;1.25;;;;;;;;;;5051865;28;20562;-63
2022/08/18 09:17:23;;;;;;;2.72;1.17;;;23.00;99.90;;;;;;5052293;28;20524;-63
2022/08/18 09:20:16;;;;;;;2.30;0.93;;;23.20;99.90;;;;;;5052066;28;20049;-63
2022/08/18 09:22:59;;;;;;;1.60;0.80;;;23.00;99.90;;;;;;5052553;28;20048;-63
2022/08/18 09:25:36;;;;;;;4.43;0.90;;;22.60;99.90;;;;;;5050855;28;20041;-63
2022/08/18 09:28:16;;;;;;;2.22;0.80;;;22.80;99.90;;;;;;5052188;28;20044;-62
2022/08/18 09:30:42;;;;;;;2.87;1.00;;;;;;;;;;5052235;28;20054;-63
2022/08/18 09:33:10;;;;;;;1.55;0.80;;;22.70;99.90;;;;;;5052420;28;20296;-62
2022/08/18 09:36:05;;;;;;;2.55;0.95;;;22.60;99.90;;;;;;5051396;28;20076;-63
2022/08/18 09:41:33;;;;;;;2.70;1.17;;;;;;;;;;5051748;28;20055;-63
2022/08/18 09:44:09;;;;;;;;;;;22.50;99.90;;;;;;5052476;28;20053;-64
2022/08/18 09:46:47;;;;;;;6.30;1.05;;;;;;;;;;5051363;28;19946;-63
2022/08/18 09:49:23;;;;;;;3.88;1.20;;;;;;;;;;5052052;28;20049;-63
2022/08/18 09:51:51;;;;;;;5.88;1.55;;;22.60;99.90;;;;;;5051481;28;20123;-64
2022/08/18 09:54:23;;;;;;;3.35;1.10;;;;;;;;;;5034483;28;20053;-63
2022/08/18 09:56:49;;;;;;;2.88;1.30;;;;;;;;;;5051239;28;20049;-63
2022/08/18 09:59:34;;;;;;;5.93;1.20;;;;;;;;;;5051868;28;20132;-63
2022/08/18 10:02:02;;;;;;;3.90;1.30;;;;;;;;;;5051812;28;20048;-63
2022/08/18 10:04:54;;;;;;;2.50;1.27;;;;;;;;;;5051224;28;20116;-63
2022/08/18 10:07:29;;;;;;;7.65;1.75;;;;;;;;;;5013736;28;20048;-63
2022/08/18 10:10:09;;;;;;;4.97;1.67;;;;;;;;;;5055624;28;20044;-63
2022/08/18 10:12:38;;;;;;;4.35;1.40;;;;;;;;;;5055773;28;20056;-63
2022/08/18 10:15:25;;;;;;;5.03;1.83;;;;;;;;;;5055054;28;20085;-63
2022/08/18 10:18:03;;;;;;;3.38;1.30;;;;;;;;;;5054926;28;20135;-63
2022/08/18 10:20:39;;;;;;;4.93;1.63;;;;;;;;;;5036660;28;20080;-64
2022/08/18 10:23:06;;;;;;;5.13;1.63;;;21.70;99.90;;;;;;5055100;28;20084;-63
2022/08/18 10:25:36;;;;;;;5.03;1.40;;;;;;;;;;5035577;28;20052;-63
2022/08/18 10:28:04;;;;;;;4.68;1.52;;;;;;;;;;5034824;28;20072;-63
2022/08/18 10:30:33;;;;;;;3.83;1.45;;;21.60;99.90;;;;;;5017994;28;20053;-64
2022/08/18 10:33:01;;;;;;;4.80;1.90;;;;;;;;;;5035313;28;20046;-65
2022/08/18 10:35:33;;;;;;;5.70;1.70;;;;;;;;;;5046752;28;20049;-65
2022/08/18 10:38:00;;;;;;;2.70;1.38;;;;;;;;;;5055117;28;20443;-64
2022/08/18 10:40:26;;;;;;;2.38;1.20;;;;;;;;;;5037204;28;20057;-63
2022/08/18 10:43:08;;;;;;;3.75;1.67;;;22.30;99.90;;;;;;5055072;28;20138;-64
2022/08/18 10:45:51;;;;;;;3.97;1.48;;;22.40;99.90;;;;;;5054095;28;20084;-63
2022/08/18 10:48:25;;;;;;;3.80;2.33;;;;;;;;;;5037524;28;20099;-64
2022/08/18 10:50:51;;;;;;;4.68;2.08;;;;;;;;;;5054878;28;20122;-63
2022/08/18 10:54:01;;;;;;;5.05;1.50;;;22.80;99.90;;;;;;5054835;28;20504;-63
2022/08/18 10:56:39;;;;;;;;;;;23.00;99.90;;;;;;5054009;28;20106;-63
2022/08/18 10:59:20;;;;;;;2.92;1.10;;;23.10;99.90;;;;;;5054500;28;20516;-63
2022/08/18 11:02:33;;;;;;;1.95;1.20;;;23.10;99.90;;;;;;5054690;28;20045;-63
2022/08/18 11:04:58;;;;;;;2.63;1.10;;;;;;;;;;5052452;28;20420;-64
2022/08/18 11:07:28;;;;;;;3.70;1.33;;;23.30;99.90;;;;;;5054706;28;20386;-63
2022/08/18 11:09:56;;;;;;;3.15;1.20;;;23.60;99.90;;;;;;5054800;28;20493;-63
2022/08/18 11:12:44;;;;;;;4.32;1.50;;;23.20;99.90;;;;;;5054542;28;20052;-63
2022/08/18 11:15:47;;;;;;;3.47;1.30;;;23.10;99.90;;;;;;5035936;28;20056;-63
2022/08/18 11:18:27;;;;;;;2.97;1.20;;;22.50;99.90;;;;;;5054116;28;20057;-64
2022/08/18 11:20:53;;;;;;;;;;;22.70;99.90;;;;;;5038466;28;20053;-63
2022/08/18 11:23:19;;;;;;;2.28;1.08;;;;;;;;;;5054104;28;19921;-63
2022/08/18 11:25:46;;;;;;;3.80;1.10;;;;;;;;;;5053330;28;20045;-63
2022/08/18 11:28:18;;;;;;;5.47;1.42;;;22.80;99.90;;;;;;5053475;28;20532;-63
2022/08/18 11:30:44;;;;;;;4.63;1.50;;;;;;;;;;5054073;28;20509;-63
2022/08/18 11:33:15;;;;;;;2.17;1.13;;;22.80;99.90;;;;;;5052688;28;20095;-64
2022/08/18 11:35:50;;;;;;;3.65;1.10;;;23.20;99.90;;;;;;5053946;28;20405;-63
2022/08/18 11:38:18;;;;;;;3.10;1.70;;;23.20;99.90;;;;;;5054223;28;20095;-64
2022/08/18 11:40:46;;;;;;;2.50;1.00;;;24.00;99.90;;;;;;5036417;28;20045;-63
2022/08/18 11:43:23;;;;;;;4.70;1.15;;;24.40;99.90;;;;;;5052665;28;20049;-63
2022/08/18 11:45:58;;;;;;;2.30;1.08;;;24.60;99.90;;;;;;5035983;28;20052;-63
2022/08/18 11:48:27;;;;;;;2.50;1.05;;;24.50;99.90;;;;;;5053767;28;20076;-64
2022/08/18 11:50:55;;;;;;;2.47;1.20;;;23.90;99.90;;;;;;5053869;28;20382;-63
2022/08/18 11:53:41;;;;;;;1.75;0.90;;;24.00;99.90;;;;;;5052969;28;20373;-63
2022/08/18 11:56:20;;;;;;;4.15;1.33;;;24.00;99.90;;;;;;5053687;28;20056;-63
2022/08/18 11:59:01;;;;;;;2.80;1.23;;;23.60;99.90;;;;;;5053432;28;20084;-63
2022/08/18 12:01:27;;;;;;;2.88;1.38;;;;;;;;;;5053534;28;20041;-64
2022/08/18 12:03:53;;;;;;;3.03;1.23;;;;;;;;;;5034184;28;20102;-64
2022/08/18 12:06:29;;;;;;;2.97;1.75;;;23.60;99.90;;;;;;5053504;28;20128;-63
2022/08/18 12:08:59;;;;;;;2.67;1.30;;;23.80;99.90;;;;;;5053356;28;20140;-63
2022/08/18 12:11:35;;;;;;;;;;;23.80;99.90;;;;;;5054249;28;20045;-63
2022/08/18 12:14:05;;;;;;;3.17;1.38;;;23.80;99.90;;;;;;5052665;28;20008;-63
2022/08/18 12:16:40;;;;;;;6.30;1.23;;;23.70;99.90;;;;;;5033491;28;20049;-63
2022/08/18 12:19:11;;;;;;;3.85;1.20;;;;;;;;;;5052063;28;20106;-63
2022/08/18 12:21:45;;;;;;;2.30;1.10;;;23.00;99.90;;;;;;5053016;28;20102;-63
2022/08/18 12:24:28;;;;;;;2.47;1.45;;;;;;;;;;5053258;28;20567;-63
2022/08/18 12:26:55;;;;;;;3.17;1.20;;;;;;;;;;5035347;28;20049;-63
2022/08/18 12:29:21;;;;;;;3.80;1.65;;;;;;;;;;5051725;28;20067;-63
2022/08/18 12:31:50;;;;;;;3.03;1.20;;;23.90;99.90;;;;;;5052465;28;20049;-63
2022/08/18 12:34:18;;;;;;;3.63;1.33;;;23.70;99.90;;;;;;5053109;28;20132;-63
2022/08/18 12:36:44;;;;;;;2.25;1.40;;;;;;;;;;5052901;28;20497;-63
2022/08/18 12:39:10;;;;;;;2.95;1.27;;;;;;;;;;5052836;28;20045;-63
2022/08/18 12:41:36;;;;;;;2.90;1.33;;;;;;;;;;5052851;28;20177;-63
2022/08/18 12:44:02;;;;;;;2.95;1.52;;;24.00;99.90;;;;;;5051942;28;20058;-63
2022/08/18 12:46:29;;;;;;;2.33;1.20;;;23.90;99.90;;;;;;5052719;28;20045;-63
2022/08/18 12:48:55;;;;;;;2.65;1.10;;;;;;;;;;5052884;28;20041;-63
2022/08/18 12:51:21;;;;;;;2.35;1.20;;;;;;;;;;5052815;28;20417;-63
2022/08/18 12:53:48;;;;;;;2.50;1.27;;;;;;;;;;5052081;28;20120;-63
2022/08/18 12:56:26;;;;;;;2.10;1.13;;;24.10;99.90;;;;;;5052613;28;20085;-63
2022/08/18 12:58:52;;;;;;;3.72;1.23;;;24.30;99.90;;;;;;5052215;28;20116;-63
2022/08/18 13:01:19;;;;;;;2.72;1.30;;;24.70;99.90;;;;;;5052708;28;20052;-63
2022/08/18 13:03:45;;;;;;;2.95;1.20;;;24.70;99.90;;;;;;5052656;28;20052;-63
2022/08/18 13:06:12;;;;;;;3.20;1.20;;;25.10;99.90;;;;;;5052575;28;20049;-63
2022/08/18 13:08:38;;;;;;;4.07;2.17;;;;;;;;;;5051071;28;20577;-63
2022/08/18 13:11:09;;;;;;;2.22;1.30;;;25.30;99.90;;;;;;5032575;28;20448;-64
2022/08/18 13:13:35;;;;;;;1.90;1.10;;;25.20;99.90;;;;;;5032453;28;20042;-63
2022/08/18 13:16:02;;;;;;;3.35;1.17;;;;;;;;;;5015158;28;20053;-63
2022/08/18 13:18:28;;;;;;;3.90;1.48;;;;;;;;;;5011317;28;20057;-63
2022/08/18 13:20:54;;;;;;;2.17;1.23;;;;;;;;;;5012673;28;20529;-63
2022/08/18 13:23:20;;;;;;;3.53;1.30;;;;;;;;;;5029876;28;20041;-63
2022/08/18 13:25:46;;;;;;;3.97;1.88;;;;;;;;;;5032295;28;20052;-64
2022/08/18 13:28:12;;;;;;;2.05;1.48;;;;;;;;;;5032217;28;20045;-63
2022/08/18 13:30:38;;;;;;;3.17;1.48;;;;;;;;;;5031950;28;20038;-63
2022/08/18 13:33:06;;;;;;;3.33;1.40;;;;;;;;;;5031965;28;20052;-63
2022/08/18 13:35:32;;;;;;;2.67;1.48;;;;;;;;;;5031959;28;20551;-63
2022/08/18 13:37:58;;;;;;;2.83;1.30;;;;;;;;;;5031139;28;20048;-63
2022/08/18 13:40:25;;;;;;;3.10;1.50;;;;;;;;;;5032136;28;20085;-63
2022/08/18 13:42:51;;;;;;;2.65;1.40;;;;;;;;;;5032912;28;20041;-63
2022/08/18 13:45:20;;;;;;;4.07;1.45;;;24.20;99.90;;;;;;5035335;28;20593;-63
2022/08/18 13:47:46;;;;;;;3.00;1.40;;;;;;;;;;5035963;28;20056;-63
2022/08/18 13:50:13;;;;;;;1.83;1.13;;;;;;;;;;5036162;28;20053;-63
2022/08/18 13:52:39;;;;;;;2.38;1.58;;;24.90;99.90;;;;;;5036043;28;20098;-63
2022/08/18 13:55:16;;;;;;;4.60;1.40;;;24.80;99.90;;;;;;5035923;28;20049;-63
2022/08/18 13:57:49;;;;;;;3.85;1.67;;;25.20;99.90;;;;;;5016236;28;20049;-63
2022/08/18 14:00:21;;;;;;;4.63;1.88;;;25.30;99.90;;;;;;5020176;28;20120;-63
2022/08/18 14:02:53;;;;;;;4.43;1.42;;;25.40;99.90;;;;;;5035803;28;20111;-63
2022/08/18 14:05:20;;;;;;;4.00;1.60;;;25.60;99.90;;;;;;5035171;28;20132;-63
2022/08/18 14:07:46;;;;;;;3.42;1.63;;;;;;;;;;5035594;28;20107;-63
2022/08/18 14:10:13;;;;;;;2.45;1.50;;;25.30;99.90;;;;;;5035805;28;20048;-63
2022/08/18 14:12:40;;;;;;;2.20;1.40;;;;;;;;;;5035726;28;20084;-63
2022/08/18 14:15:09;;;;;;;3.15;1.83;;;25.70;99.90;;;;;;5034924;28;20049;-63
2022/08/18 14:17:35;;;;;;;2.93;1.47;;;25.90;99.90;;;;;;5038076;28;20389;-63
2022/08/18 14:28:18;;;;;;;3.05;1.40;;;;;;;;;;5055253;28;20060;-65
2022/08/18 14:30:45;;;;;;;2.80;1.20;;;;;;;;;;5053683;28;20057;-64
2022/08/18 14:33:13;;;;;;;2.97;1.65;;;;;;;;;;5053120;28;20124;-64
2022/08/18 14:35:40;;;;;;;4.10;1.55;;;;;;;;;;5054993;28;20044;-64
2022/08/18 14:38:07;;;;;;;3.83;1.20;;;;;;;;;;5055086;28;20045;-64
2022/08/18 14:40:33;;;;;;;3.03;1.80;;;;;;;;;;5055037;28;20059;-63
2022/08/18 14:43:00;;;;;;;4.18;2.10;;;;;;;;;;5054597;28;20048;-63
2022/08/18 14:45:27;;;;;;;3.22;1.65;;;;;;;;;;5054087;28;20053;-63
2022/08/18 14:47:52;;;;;;;4.72;2.20;;;24.50;99.90;;;;;;5055105;28;20045;-63